sensor_id;sensor_type;location;lat;lon;timestamp;temperature;humidity
21085;DHT22;34247;50.064;19.970;2022-11-18T00:00:50;20.80;25.50
21085;DHT22;34247;50.064;19.970;2022-11-18T00:02:01;20.80;25.50
21085;DHT22;34247;50.064;19.970;2022-11-18T00:03:06;20.80;25.60
21085;DHT22;34247;50.064;19.970;2022-11-18T00:04:11;20.80;25.50
21085;DHT22;34247;50.064;19.970;2022-11-18T00:05:23;20.80;25.60
21085;DHT22;34247;50.064;19.970;2022-11-18T00:06:28;20.80;25.50
21085;DHT22;34247;50.064;19.970;2022-11-18T00:07:45;20.80;25.60
21085;DHT22;34247;50.064;19.970;2022-11-18T00:08:55;20.80;25.60
21085;DHT22;34247;50.064;19.970;2022-11-18T00:10:07;20.90;25.50
21085;DHT22;34247;50.064;19.970;2022-11-18T00:11:16;20.80;25.40
21085;DHT22;34247;50.064;19.970;2022-11-18T00:12:40;20.80;25.40
21085;DHT22;34247;50.064;19.970;2022-11-18T00:14:11;20.80;25.40
21085;DHT22;34247;50.064;19.970;2022-11-18T00:15:27;20.80;25.50
21085;DHT22;34247;50.064;19.970;2022-11-18T00:16:34;20.80;25.50
21085;DHT22;34247;50.064;19.970;2022-11-18T00:17:41;20.80;25.50
21085;DHT22;34247;50.064;19.970;2022-11-18T00:18:47;20.80;25.40
21085;DHT22;34247;50.064;19.970;2022-11-18T00:19:51;20.80;25.40
21085;DHT22;34247;50.064;19.970;2022-11-18T00:20:54;20.80;25.40
21085;DHT22;34247;50.064;19.970;2022-11-18T00:22:07;20.80;25.40
21085;DHT22;34247;50.064;19.970;2022-11-18T00:23:15;20.80;25.40
21085;DHT22;34247;50.064;19.970;2022-11-18T00:24:20;20.80;25.50
21085;DHT22;34247;50.064;19.970;2022-11-18T00:25:24;20.80;25.50
21085;DHT22;34247;50.064;19.970;2022-11-18T00:26:31;20.80;25.50
21085;DHT22;34247;50.064;19.970;2022-11-18T00:27:35;20.80;25.50
21085;DHT22;34247;50.064;19.970;2022-11-18T00:28:40;20.80;25.50
21085;DHT22;34247;50.064;19.970;2022-11-18T00:30:00;20.80;25.60
21085;DHT22;34247;50.064;19.970;2022-11-18T00:31:10;20.80;25.50
21085;DHT22;34247;50.064;19.970;2022-11-18T00:32:17;20.80;25.50
21085;DHT22;34247;50.064;19.970;2022-11-18T00:33:23;20.80;25.60
21085;DHT22;34247;50.064;19.970;2022-11-18T00:34:30;20.80;25.60
21085;DHT22;34247;50.064;19.970;2022-11-18T00:35:40;20.80;25.60
21085;DHT22;34247;50.064;19.970;2022-11-18T00:36:47;20.80;25.60
21085;DHT22;34247;50.064;19.970;2022-11-18T00:37:51;20.80;25.60
21085;DHT22;34247;50.064;19.970;2022-11-18T00:39:00;20.70;25.50
21085;DHT22;34247;50.064;19.970;2022-11-18T00:40:08;20.70;25.60
21085;DHT22;34247;50.064;19.970;2022-11-18T00:41:16;20.70;25.60
21085;DHT22;34247;50.064;19.970;2022-11-18T00:42:21;20.70;25.60
21085;DHT22;34247;50.064;19.970;2022-11-18T00:43:48;20.80;25.60
21085;DHT22;34247;50.064;19.970;2022-11-18T00:44:55;20.80;25.60
21085;DHT22;34247;50.064;19.970;2022-11-18T00:46:03;20.80;25.60
21085;DHT22;34247;50.064;19.970;2022-11-18T00:47:11;20.80;25.50
21085;DHT22;34247;50.064;19.970;2022-11-18T00:48:32;20.80;25.50
21085;DHT22;34247;50.064;19.970;2022-11-18T00:49:40;20.80;25.50
21085;DHT22;34247;50.064;19.970;2022-11-18T00:50:57;20.80;25.60
21085;DHT22;34247;50.064;19.970;2022-11-18T00:52:08;20.80;25.60
21085;DHT22;34247;50.064;19.970;2022-11-18T00:53:18;20.80;25.60
21085;DHT22;34247;50.064;19.970;2022-11-18T00:54:28;20.80;25.60
21085;DHT22;34247;50.064;19.970;2022-11-18T00:55:43;20.80;25.60
21085;DHT22;34247;50.064;19.970;2022-11-18T00:56:57;20.80;25.50
21085;DHT22;34247;50.064;19.970;2022-11-18T00:58:20;20.80;25.50
21085;DHT22;34247;50.064;19.970;2022-11-18T00:59:27;20.80;25.50
21085;DHT22;34247;50.064;19.970;2022-11-18T01:00:36;20.80;25.50
21085;DHT22;34247;50.064;19.970;2022-11-18T01:01:52;20.80;25.50
21085;DHT22;34247;50.064;19.970;2022-11-18T01:03:06;20.80;25.40
21085;DHT22;34247;50.064;19.970;2022-11-18T01:04:14;20.80;25.40
21085;DHT22;34247;50.064;19.970;2022-11-18T01:05:18;20.80;25.30
21085;DHT22;34247;50.064;19.970;2022-11-18T01:06:31;20.90;25.30
21085;DHT22;34247;50.064;19.970;2022-11-18T01:07:41;20.90;25.30
21085;DHT22;34247;50.064;19.970;2022-11-18T01:08:48;20.80;25.30
21085;DHT22;34247;50.064;19.970;2022-11-18T01:09:52;20.80;25.30
21085;DHT22;34247;50.064;19.970;2022-11-18T01:10:56;20.90;25.30
21085;DHT22;34247;50.064;19.970;2022-11-18T01:12:20;20.80;25.30
21085;DHT22;34247;50.064;19.970;2022-11-18T01:13:49;20.80;25.30
21085;DHT22;34247;50.064;19.970;2022-11-18T01:15:03;20.90;25.20
21085;DHT22;34247;50.064;19.970;2022-11-18T01:16:20;20.90;25.00
21085;DHT22;34247;50.064;19.970;2022-11-18T01:17:30;20.90;25.10
21085;DHT22;34247;50.064;19.970;2022-11-18T01:18:38;20.80;25.10
21085;DHT22;34247;50.064;19.970;2022-11-18T01:19:48;20.80;25.10
21085;DHT22;34247;50.064;19.970;2022-11-18T01:21:00;20.80;25.10
21085;DHT22;34247;50.064;19.970;2022-11-18T01:22:05;20.80;25.10
21085;DHT22;34247;50.064;19.970;2022-11-18T01:23:09;20.70;25.10
21085;DHT22;34247;50.064;19.970;2022-11-18T01:24:16;20.70;25.10
21085;DHT22;34247;50.064;19.970;2022-11-18T01:25:25;20.70;25.00
21085;DHT22;34247;50.064;19.970;2022-11-18T01:26:34;20.70;25.00
21085;DHT22;34247;50.064;19.970;2022-11-18T01:27:42;20.60;25.10
21085;DHT22;34247;50.064;19.970;2022-11-18T01:28:53;20.70;25.10
21085;DHT22;34247;50.064;19.970;2022-11-18T01:30:07;20.70;25.20
21085;DHT22;34247;50.064;19.970;2022-11-18T01:31:24;20.60;25.20
21085;DHT22;34247;50.064;19.970;2022-11-18T01:32:33;20.60;25.20
21085;DHT22;34247;50.064;19.970;2022-11-18T01:33:48;20.60;25.20
21085;DHT22;34247;50.064;19.970;2022-11-18T01:34:54;20.60;25.20
21085;DHT22;34247;50.064;19.970;2022-11-18T01:35:58;20.60;25.30
21085;DHT22;34247;50.064;19.970;2022-11-18T01:37:03;20.60;25.30
21085;DHT22;34247;50.064;19.970;2022-11-18T01:38:16;20.50;25.30
21085;DHT22;34247;50.064;19.970;2022-11-18T01:39:26;20.50;25.30
21085;DHT22;34247;50.064;19.970;2022-11-18T01:40:40;20.50;25.40
21085;DHT22;34247;50.064;19.970;2022-11-18T01:41:49;20.50;25.40
21085;DHT22;34247;50.064;19.970;2022-11-18T01:42:54;20.50;25.50
21085;DHT22;34247;50.064;19.970;2022-11-18T01:44:03;20.50;25.40
21085;DHT22;34247;50.064;19.970;2022-11-18T01:45:20;20.50;25.40
21085;DHT22;34247;50.064;19.970;2022-11-18T01:46:35;20.50;25.30
21085;DHT22;34247;50.064;19.970;2022-11-18T01:47:45;20.50;25.40
21085;DHT22;34247;50.064;19.970;2022-11-18T01:49:07;20.50;25.30
21085;DHT22;34247;50.064;19.970;2022-11-18T01:50:19;20.50;25.40
21085;DHT22;34247;50.064;19.970;2022-11-18T01:51:41;20.50;25.40
21085;DHT22;34247;50.064;19.970;2022-11-18T01:52:59;20.50;25.30
21085;DHT22;34247;50.064;19.970;2022-11-18T01:54:18;20.50;25.30
21085;DHT22;34247;50.064;19.970;2022-11-18T01:55:43;20.50;25.30
21085;DHT22;34247;50.064;19.970;2022-11-18T01:56:57;20.50;25.30
21085;DHT22;34247;50.064;19.970;2022-11-18T01:58:30;20.50;25.20
21085;DHT22;34247;50.064;19.970;2022-11-18T01:59:53;20.50;25.30
21085;DHT22;34247;50.064;19.970;2022-11-18T02:01:19;20.50;25.30
21085;DHT22;34247;50.064;19.970;2022-11-18T02:02:31;20.50;25.30
21085;DHT22;34247;50.064;19.970;2022-11-18T02:03:46;20.50;25.30
21085;DHT22;34247;50.064;19.970;2022-11-18T02:04:56;20.50;25.30
21085;DHT22;34247;50.064;19.970;2022-11-18T02:06:04;20.50;25.40
21085;DHT22;34247;50.064;19.970;2022-11-18T02:07:11;20.50;25.60
21085;DHT22;34247;50.064;19.970;2022-11-18T02:08:16;20.50;25.40
21085;DHT22;34247;50.064;19.970;2022-11-18T02:09:24;20.50;25.40
21085;DHT22;34247;50.064;19.970;2022-11-18T02:10:28;20.50;25.40
21085;DHT22;34247;50.064;19.970;2022-11-18T02:11:33;20.50;25.40
21085;DHT22;34247;50.064;19.970;2022-11-18T02:12:54;20.50;25.40
21085;DHT22;34247;50.064;19.970;2022-11-18T02:14:04;20.40;25.30
21085;DHT22;34247;50.064;19.970;2022-11-18T02:15:12;20.40;25.40
21085;DHT22;34247;50.064;19.970;2022-11-18T02:16:21;20.40;25.40
21085;DHT22;34247;50.064;19.970;2022-11-18T02:21:00;20.40;25.40
21085;DHT22;34247;50.064;19.970;2022-11-18T02:26:21;20.50;25.40
21085;DHT22;34247;50.064;19.970;2022-11-18T02:30:09;20.40;25.50
21085;DHT22;34247;50.064;19.970;2022-11-18T02:31:50;20.50;25.50
21085;DHT22;34247;50.064;19.970;2022-11-18T02:33:07;20.50;25.50
21085;DHT22;34247;50.064;19.970;2022-11-18T02:37:53;20.50;25.60
21085;DHT22;34247;50.064;19.970;2022-11-18T02:39:20;20.50;25.60
21085;DHT22;34247;50.064;19.970;2022-11-18T02:41:09;20.50;25.60
21085;DHT22;34247;50.064;19.970;2022-11-18T02:42:19;20.40;25.70
21085;DHT22;34247;50.064;19.970;2022-11-18T02:43:50;20.40;25.70
21085;DHT22;34247;50.064;19.970;2022-11-18T02:45:03;20.50;25.80
21085;DHT22;34247;50.064;19.970;2022-11-18T02:46:39;20.40;25.80
21085;DHT22;34247;50.064;19.970;2022-11-18T02:47:58;20.40;25.90
21085;DHT22;34247;50.064;19.970;2022-11-18T02:49:30;20.40;25.80
21085;DHT22;34247;50.064;19.970;2022-11-18T02:50:48;20.30;25.90
21085;DHT22;34247;50.064;19.970;2022-11-18T02:51:57;20.30;25.90
21085;DHT22;34247;50.064;19.970;2022-11-18T02:53:08;20.30;26.00
21085;DHT22;34247;50.064;19.970;2022-11-18T02:54:24;20.30;26.00
21085;DHT22;34247;50.064;19.970;2022-11-18T02:55:38;20.30;26.10
21085;DHT22;34247;50.064;19.970;2022-11-18T02:56:46;20.30;26.10
21085;DHT22;34247;50.064;19.970;2022-11-18T02:58:02;20.30;26.20
21085;DHT22;34247;50.064;19.970;2022-11-18T02:59:17;20.30;26.20
21085;DHT22;34247;50.064;19.970;2022-11-18T03:00:30;20.30;26.20
21085;DHT22;34247;50.064;19.970;2022-11-18T03:01:43;20.30;26.20
21085;DHT22;34247;50.064;19.970;2022-11-18T03:02:49;20.30;26.30
21085;DHT22;34247;50.064;19.970;2022-11-18T03:03:59;20.30;26.30
21085;DHT22;34247;50.064;19.970;2022-11-18T03:05:34;20.20;26.30
21085;DHT22;34247;50.064;19.970;2022-11-18T03:07:33;20.20;27.00
21085;DHT22;34247;50.064;19.970;2022-11-18T03:08:25;20.30;26.50
21085;DHT22;34247;50.064;19.970;2022-11-18T03:09:43;20.20;26.50
21085;DHT22;34247;50.064;19.970;2022-11-18T03:11:13;20.30;26.50
21085;DHT22;34247;50.064;19.970;2022-11-18T03:13:02;20.30;26.60
21085;DHT22;34247;50.064;19.970;2022-11-18T03:14:35;20.30;26.50
21085;DHT22;34247;50.064;19.970;2022-11-18T03:16:13;20.30;26.60
21085;DHT22;34247;50.064;19.970;2022-11-18T03:17:59;20.30;26.50
21085;DHT22;34247;50.064;19.970;2022-11-18T03:19:33;20.30;26.50
21085;DHT22;34247;50.064;19.970;2022-11-18T03:21:12;20.40;26.50
21085;DHT22;34247;50.064;19.970;2022-11-18T03:22:43;20.40;26.40
21085;DHT22;34247;50.064;19.970;2022-11-18T03:24:27;20.40;26.40
21085;DHT22;34247;50.064;19.970;2022-11-18T03:25:54;20.30;26.40
21085;DHT22;34247;50.064;19.970;2022-11-18T03:27:09;20.30;26.40
21085;DHT22;34247;50.064;19.970;2022-11-18T03:28:39;20.40;26.50
21085;DHT22;34247;50.064;19.970;2022-11-18T03:30:07;20.40;26.50
21085;DHT22;34247;50.064;19.970;2022-11-18T03:31:29;20.30;26.40
21085;DHT22;34247;50.064;19.970;2022-11-18T03:32:43;20.30;26.90
21085;DHT22;34247;50.064;19.970;2022-11-18T03:34:24;20.40;26.50
21085;DHT22;34247;50.064;19.970;2022-11-18T03:35:40;20.40;26.50
21085;DHT22;34247;50.064;19.970;2022-11-18T03:37:00;20.30;26.50
21085;DHT22;34247;50.064;19.970;2022-11-18T03:38:15;20.30;26.50
21085;DHT22;34247;50.064;19.970;2022-11-18T03:39:24;20.30;26.50
21085;DHT22;34247;50.064;19.970;2022-11-18T03:40:47;20.30;26.60
21085;DHT22;34247;50.064;19.970;2022-11-18T03:42:37;20.30;26.60
21085;DHT22;34247;50.064;19.970;2022-11-18T03:43:57;20.30;26.60
21085;DHT22;34247;50.064;19.970;2022-11-18T03:45:29;20.30;26.60
21085;DHT22;34247;50.064;19.970;2022-11-18T03:47:05;20.30;26.60
21085;DHT22;34247;50.064;19.970;2022-11-18T03:48:26;20.30;26.70
21085;DHT22;34247;50.064;19.970;2022-11-18T03:49:44;20.30;26.70
21085;DHT22;34247;50.064;19.970;2022-11-18T03:51:00;20.40;26.70
21085;DHT22;34247;50.064;19.970;2022-11-18T03:52:17;20.30;26.60
21085;DHT22;34247;50.064;19.970;2022-11-18T03:53:29;20.30;26.60
21085;DHT22;34247;50.064;19.970;2022-11-18T03:54:41;20.40;26.70
21085;DHT22;34247;50.064;19.970;2022-11-18T03:55:58;20.40;26.50
21085;DHT22;34247;50.064;19.970;2022-11-18T03:57:19;20.40;26.60
21085;DHT22;34247;50.064;19.970;2022-11-18T04:00:13;20.40;26.50
21085;DHT22;34247;50.064;19.970;2022-11-18T04:02:58;20.40;26.50
21085;DHT22;34247;50.064;19.970;2022-11-18T04:04:04;20.40;27.00
21085;DHT22;34247;50.064;19.970;2022-11-18T04:05:17;20.40;26.50
21085;DHT22;34247;50.064;19.970;2022-11-18T04:08:21;20.40;26.40
21085;DHT22;34247;50.064;19.970;2022-11-18T04:09:33;20.40;26.50
21085;DHT22;34247;50.064;19.970;2022-11-18T04:11:22;20.30;26.50
21085;DHT22;34247;50.064;19.970;2022-11-18T04:13:00;20.30;26.50
21085;DHT22;34247;50.064;19.970;2022-11-18T04:14:10;20.30;26.60
21085;DHT22;34247;50.064;19.970;2022-11-18T04:15:16;20.30;26.60
21085;DHT22;34247;50.064;19.970;2022-11-18T04:16:21;20.20;26.50
21085;DHT22;34247;50.064;19.970;2022-11-18T04:17:27;20.20;26.60
21085;DHT22;34247;50.064;19.970;2022-11-18T04:18:31;20.20;26.60
21085;DHT22;34247;50.064;19.970;2022-11-18T04:19:36;20.20;26.70
21085;DHT22;34247;50.064;19.970;2022-11-18T04:20:40;20.20;26.60
21085;DHT22;34247;50.064;19.970;2022-11-18T04:21:46;20.20;26.60
21085;DHT22;34247;50.064;19.970;2022-11-18T04:22:52;20.20;26.70
21085;DHT22;34247;50.064;19.970;2022-11-18T04:24:11;20.20;26.70
21085;DHT22;34247;50.064;19.970;2022-11-18T04:25:21;20.20;26.70
21085;DHT22;34247;50.064;19.970;2022-11-18T04:26:29;20.20;26.80
21085;DHT22;34247;50.064;19.970;2022-11-18T04:27:37;20.20;26.90
21085;DHT22;34247;50.064;19.970;2022-11-18T04:28:41;20.20;26.80
21085;DHT22;34247;50.064;19.970;2022-11-18T04:29:48;20.20;26.80
21085;DHT22;34247;50.064;19.970;2022-11-18T04:30:56;20.20;26.80
21085;DHT22;34247;50.064;19.970;2022-11-18T04:32:08;20.20;26.80
21085;DHT22;34247;50.064;19.970;2022-11-18T04:33:13;20.20;26.80
21085;DHT22;34247;50.064;19.970;2022-11-18T04:34:20;20.20;26.80
21085;DHT22;34247;50.064;19.970;2022-11-18T04:35:26;20.20;26.70
21085;DHT22;34247;50.064;19.970;2022-11-18T04:36:31;20.20;26.70
21085;DHT22;34247;50.064;19.970;2022-11-18T04:37:36;20.20;26.70
21085;DHT22;34247;50.064;19.970;2022-11-18T04:38:40;20.20;26.70
21085;DHT22;34247;50.064;19.970;2022-11-18T04:39:44;20.20;26.70
21085;DHT22;34247;50.064;19.970;2022-11-18T04:40:52;20.20;26.70
21085;DHT22;34247;50.064;19.970;2022-11-18T04:42:02;20.20;26.60
21085;DHT22;34247;50.064;19.970;2022-11-18T04:43:08;20.20;26.70
21085;DHT22;34247;50.064;19.970;2022-11-18T04:44:14;20.20;26.70
21085;DHT22;34247;50.064;19.970;2022-11-18T04:45:25;20.20;26.60
21085;DHT22;34247;50.064;19.970;2022-11-18T04:46:34;20.20;26.70
21085;DHT22;34247;50.064;19.970;2022-11-18T04:47:41;20.20;26.60
21085;DHT22;34247;50.064;19.970;2022-11-18T04:48:48;20.20;26.60
21085;DHT22;34247;50.064;19.970;2022-11-18T04:49:58;20.20;26.60
21085;DHT22;34247;50.064;19.970;2022-11-18T04:51:09;20.20;26.60
21085;DHT22;34247;50.064;19.970;2022-11-18T04:52:20;20.20;26.60
21085;DHT22;34247;50.064;19.970;2022-11-18T04:53:28;20.20;26.60
21085;DHT22;34247;50.064;19.970;2022-11-18T04:54:41;20.20;26.50
21085;DHT22;34247;50.064;19.970;2022-11-18T04:55:55;20.20;26.50
21085;DHT22;34247;50.064;19.970;2022-11-18T04:57:03;20.20;26.50
21085;DHT22;34247;50.064;19.970;2022-11-18T04:58:19;20.20;26.60
21085;DHT22;34247;50.064;19.970;2022-11-18T04:59:29;20.20;26.60
21085;DHT22;34247;50.064;19.970;2022-11-18T05:00:41;20.20;26.70
21085;DHT22;34247;50.064;19.970;2022-11-18T05:01:51;20.20;26.70
21085;DHT22;34247;50.064;19.970;2022-11-18T05:03:00;20.20;26.70
21085;DHT22;34247;50.064;19.970;2022-11-18T05:04:22;20.20;26.80
21085;DHT22;34247;50.064;19.970;2022-11-18T05:05:34;20.20;26.70
21085;DHT22;34247;50.064;19.970;2022-11-18T05:06:43;20.20;26.90
21085;DHT22;34247;50.064;19.970;2022-11-18T05:07:53;20.20;26.70
21085;DHT22;34247;50.064;19.970;2022-11-18T05:09:06;20.20;26.70
21085;DHT22;34247;50.064;19.970;2022-11-18T05:10:10;20.20;26.80
21085;DHT22;34247;50.064;19.970;2022-11-18T05:11:19;20.10;26.80
21085;DHT22;34247;50.064;19.970;2022-11-18T05:12:48;20.20;26.80
21085;DHT22;34247;50.064;19.970;2022-11-18T05:14:03;20.20;26.70
21085;DHT22;34247;50.064;19.970;2022-11-18T05:15:09;20.20;26.60
21085;DHT22;34247;50.064;19.970;2022-11-18T05:16:14;20.20;26.60
21085;DHT22;34247;50.064;19.970;2022-11-18T05:17:19;20.20;26.50
21085;DHT22;34247;50.064;19.970;2022-11-18T05:18:25;20.20;26.50
21085;DHT22;34247;50.064;19.970;2022-11-18T05:19:30;20.20;26.50
21085;DHT22;34247;50.064;19.970;2022-11-18T05:20:40;20.20;26.50
21085;DHT22;34247;50.064;19.970;2022-11-18T05:21:46;20.20;26.50
21085;DHT22;34247;50.064;19.970;2022-11-18T05:22:50;20.20;26.50
21085;DHT22;34247;50.064;19.970;2022-11-18T05:23:55;20.30;26.50
21085;DHT22;34247;50.064;19.970;2022-11-18T05:25:05;20.20;26.40
21085;DHT22;34247;50.064;19.970;2022-11-18T05:26:11;20.20;26.40
21085;DHT22;34247;50.064;19.970;2022-11-18T05:27:17;20.30;26.50
21085;DHT22;34247;50.064;19.970;2022-11-18T05:28:26;20.30;26.30
21085;DHT22;34247;50.064;19.970;2022-11-18T05:29:39;20.30;26.30
21085;DHT22;34247;50.064;19.970;2022-11-18T05:30:52;20.20;26.30
21085;DHT22;34247;50.064;19.970;2022-11-18T05:31:56;20.20;26.40
21085;DHT22;34247;50.064;19.970;2022-11-18T05:33:02;20.20;26.50
21085;DHT22;34247;50.064;19.970;2022-11-18T05:34:18;20.10;26.50
21085;DHT22;34247;50.064;19.970;2022-11-18T05:35:29;20.20;26.60
21085;DHT22;34247;50.064;19.970;2022-11-18T05:36:41;20.20;26.50
21085;DHT22;34247;50.064;19.970;2022-11-18T05:37:45;20.20;26.60
21085;DHT22;34247;50.064;19.970;2022-11-18T05:38:51;20.10;26.50
21085;DHT22;34247;50.064;19.970;2022-11-18T05:39:59;20.10;26.60
21085;DHT22;34247;50.064;19.970;2022-11-18T05:41:03;20.10;26.60
21085;DHT22;34247;50.064;19.970;2022-11-18T05:42:14;20.00;26.70
21085;DHT22;34247;50.064;19.970;2022-11-18T05:43:40;20.10;26.80
21085;DHT22;34247;50.064;19.970;2022-11-18T05:44:47;20.00;26.70
21085;DHT22;34247;50.064;19.970;2022-11-18T05:46:00;20.00;26.80
21085;DHT22;34247;50.064;19.970;2022-11-18T05:47:04;20.10;26.90
21085;DHT22;34247;50.064;19.970;2022-11-18T05:48:10;20.10;26.90
21085;DHT22;34247;50.064;19.970;2022-11-18T05:49:29;20.10;26.80
21085;DHT22;34247;50.064;19.970;2022-11-18T05:50:37;20.00;26.70
21085;DHT22;34247;50.064;19.970;2022-11-18T05:51:45;20.00;26.80
21085;DHT22;34247;50.064;19.970;2022-11-18T05:52:56;20.00;26.80
21085;DHT22;34247;50.064;19.970;2022-11-18T05:54:07;20.10;26.80
21085;DHT22;34247;50.064;19.970;2022-11-18T05:55:17;20.10;26.90
21085;DHT22;34247;50.064;19.970;2022-11-18T05:56:38;20.00;26.80
21085;DHT22;34247;50.064;19.970;2022-11-18T05:57:55;20.00;26.80
21085;DHT22;34247;50.064;19.970;2022-11-18T05:58:59;20.10;26.90
21085;DHT22;34247;50.064;19.970;2022-11-18T06:00:08;20.00;26.80
21085;DHT22;34247;50.064;19.970;2022-11-18T06:01:29;20.00;26.80
21085;DHT22;34247;50.064;19.970;2022-11-18T06:02:52;20.10;26.90
21085;DHT22;34247;50.064;19.970;2022-11-18T06:04:00;20.10;26.90
21085;DHT22;34247;50.064;19.970;2022-11-18T06:05:05;20.10;26.90
21085;DHT22;34247;50.064;19.970;2022-11-18T06:06:15;20.00;26.90
21085;DHT22;34247;50.064;19.970;2022-11-18T06:07:31;20.10;27.00
21085;DHT22;34247;50.064;19.970;2022-11-18T06:08:46;20.10;27.00
21085;DHT22;34247;50.064;19.970;2022-11-18T06:09:58;20.00;27.00
21085;DHT22;34247;50.064;19.970;2022-11-18T06:11:11;20.00;27.00
21085;DHT22;34247;50.064;19.970;2022-11-18T06:12:20;20.00;27.10
21085;DHT22;34247;50.064;19.970;2022-11-18T06:13:35;20.00;27.10
21085;DHT22;34247;50.064;19.970;2022-11-18T06:14:52;20.00;27.20
21085;DHT22;34247;50.064;19.970;2022-11-18T06:16:11;20.00;27.20
21085;DHT22;34247;50.064;19.970;2022-11-18T06:17:25;20.00;27.20
21085;DHT22;34247;50.064;19.970;2022-11-18T06:18:38;20.00;27.30
21085;DHT22;34247;50.064;19.970;2022-11-18T06:19:55;20.10;27.20
21085;DHT22;34247;50.064;19.970;2022-11-18T06:21:11;20.00;27.10
21085;DHT22;34247;50.064;19.970;2022-11-18T06:22:19;20.00;27.00
21085;DHT22;34247;50.064;19.970;2022-11-18T06:23:24;20.00;27.10
21085;DHT22;34247;50.064;19.970;2022-11-18T06:24:32;20.10;27.10
21085;DHT22;34247;50.064;19.970;2022-11-18T06:25:42;20.00;27.10
21085;DHT22;34247;50.064;19.970;2022-11-18T06:26:50;20.10;27.10
21085;DHT22;34247;50.064;19.970;2022-11-18T06:27:59;20.00;27.00
21085;DHT22;34247;50.064;19.970;2022-11-18T06:29:06;20.10;27.00
21085;DHT22;34247;50.064;19.970;2022-11-18T06:30:16;20.10;27.00
21085;DHT22;34247;50.064;19.970;2022-11-18T06:31:20;20.10;27.10
21085;DHT22;34247;50.064;19.970;2022-11-18T06:32:33;20.00;27.10
21085;DHT22;34247;50.064;19.970;2022-11-18T06:33:43;20.00;27.20
21085;DHT22;34247;50.064;19.970;2022-11-18T06:34:47;20.10;27.10
21085;DHT22;34247;50.064;19.970;2022-11-18T06:35:51;20.10;27.10
21085;DHT22;34247;50.064;19.970;2022-11-18T06:36:57;20.00;27.10
21085;DHT22;34247;50.064;19.970;2022-11-18T06:38:04;20.00;27.10
21085;DHT22;34247;50.064;19.970;2022-11-18T06:39:14;20.00;27.00
21085;DHT22;34247;50.064;19.970;2022-11-18T06:40:23;20.10;27.00
21085;DHT22;34247;50.064;19.970;2022-11-18T06:41:39;20.00;27.00
21085;DHT22;34247;50.064;19.970;2022-11-18T06:42:44;20.00;27.00
21085;DHT22;34247;50.064;19.970;2022-11-18T06:44:07;20.00;27.00
21085;DHT22;34247;50.064;19.970;2022-11-18T06:45:11;20.00;27.00
21085;DHT22;34247;50.064;19.970;2022-11-18T06:46:17;20.00;27.00
21085;DHT22;34247;50.064;19.970;2022-11-18T06:47:40;20.00;27.10
21085;DHT22;34247;50.064;19.970;2022-11-18T06:48:44;19.90;27.10
21085;DHT22;34247;50.064;19.970;2022-11-18T06:49:51;19.90;27.10
21085;DHT22;34247;50.064;19.970;2022-11-18T06:50:56;19.90;27.10
21085;DHT22;34247;50.064;19.970;2022-11-18T06:52:01;19.80;27.10
21085;DHT22;34247;50.064;19.970;2022-11-18T06:53:07;19.80;27.10
21085;DHT22;34247;50.064;19.970;2022-11-18T06:54:15;19.80;27.20
21085;DHT22;34247;50.064;19.970;2022-11-18T06:55:24;19.80;27.20
21085;DHT22;34247;50.064;19.970;2022-11-18T06:56:29;19.80;27.20
21085;DHT22;34247;50.064;19.970;2022-11-18T06:57:35;19.80;27.30
21085;DHT22;34247;50.064;19.970;2022-11-18T06:58:39;19.80;27.30
21085;DHT22;34247;50.064;19.970;2022-11-18T06:59:44;19.80;27.30
21085;DHT22;34247;50.064;19.970;2022-11-18T07:00:48;19.80;27.20
21085;DHT22;34247;50.064;19.970;2022-11-18T07:01:53;19.80;27.20
21085;DHT22;34247;50.064;19.970;2022-11-18T07:02:57;19.80;27.20
21085;DHT22;34247;50.064;19.970;2022-11-18T07:04:03;19.80;27.30
21085;DHT22;34247;50.064;19.970;2022-11-18T07:05:07;19.80;27.30
21085;DHT22;34247;50.064;19.970;2022-11-18T07:06:24;19.80;27.20
21085;DHT22;34247;50.064;19.970;2022-11-18T07:07:30;19.80;27.10
21085;DHT22;34247;50.064;19.970;2022-11-18T07:08:44;19.80;27.10
21085;DHT22;34247;50.064;19.970;2022-11-18T07:09:49;19.80;27.20
21085;DHT22;34247;50.064;19.970;2022-11-18T07:10:54;19.80;27.20
21085;DHT22;34247;50.064;19.970;2022-11-18T07:11:59;19.80;27.20
21085;DHT22;34247;50.064;19.970;2022-11-18T07:13:03;19.80;27.20
21085;DHT22;34247;50.064;19.970;2022-11-18T07:14:09;19.80;27.20
21085;DHT22;34247;50.064;19.970;2022-11-18T07:15:13;19.80;27.20
21085;DHT22;34247;50.064;19.970;2022-11-18T07:16:20;19.90;27.30
21085;DHT22;34247;50.064;19.970;2022-11-18T07:17:37;19.80;27.20
21085;DHT22;34247;50.064;19.970;2022-11-18T07:18:50;19.80;27.20
21085;DHT22;34247;50.064;19.970;2022-11-18T07:20:10;19.80;27.30
21085;DHT22;34247;50.064;19.970;2022-11-18T07:21:17;19.80;27.30
21085;DHT22;34247;50.064;19.970;2022-11-18T07:22:25;19.80;27.20
21085;DHT22;34247;50.064;19.970;2022-11-18T07:23:32;19.80;27.30
21085;DHT22;34247;50.064;19.970;2022-11-18T07:24:42;19.80;27.30
21085;DHT22;34247;50.064;19.970;2022-11-18T07:25:47;19.80;27.80
21085;DHT22;34247;50.064;19.970;2022-11-18T07:26:52;19.80;27.30
21085;DHT22;34247;50.064;19.970;2022-11-18T07:27:59;19.80;27.30
21085;DHT22;34247;50.064;19.970;2022-11-18T07:29:03;19.80;27.30
21085;DHT22;34247;50.064;19.970;2022-11-18T07:30:09;19.80;27.30
21085;DHT22;34247;50.064;19.970;2022-11-18T07:31:16;19.80;27.30
21085;DHT22;34247;50.064;19.970;2022-11-18T07:32:22;19.80;27.30
21085;DHT22;34247;50.064;19.970;2022-11-18T07:33:26;19.80;27.30
21085;DHT22;34247;50.064;19.970;2022-11-18T07:34:32;19.80;27.40
21085;DHT22;34247;50.064;19.970;2022-11-18T07:35:37;19.90;27.40
21085;DHT22;34247;50.064;19.970;2022-11-18T07:36:41;19.80;27.30
21085;DHT22;34247;50.064;19.970;2022-11-18T07:37:46;19.80;27.30
21085;DHT22;34247;50.064;19.970;2022-11-18T07:38:52;19.80;27.40
21085;DHT22;34247;50.064;19.970;2022-11-18T07:39:59;19.80;27.30
21085;DHT22;34247;50.064;19.970;2022-11-18T07:41:09;19.80;27.30
21085;DHT22;34247;50.064;19.970;2022-11-18T07:42:22;19.80;27.30
21085;DHT22;34247;50.064;19.970;2022-11-18T07:43:28;19.80;27.30
21085;DHT22;34247;50.064;19.970;2022-11-18T07:44:40;19.80;27.30
21085;DHT22;34247;50.064;19.970;2022-11-18T07:45:46;19.90;27.30
21085;DHT22;34247;50.064;19.970;2022-11-18T07:46:51;19.80;27.20
21085;DHT22;34247;50.064;19.970;2022-11-18T07:47:56;19.80;27.30